Terminal Aerodrome Forecast
Issued by NWS

Home | Current Version | Previous Version | Text Only | Print | Product List | Glossary On
Versions: 1 2 3 4 5 6 7 8 9 10 11 12 13 14 15 16 17 18
000
FTUS45 KVEF 220400 AAC
TAFDAG
TAF AMD
KDAG 220415Z 2204/2224 09011KT P6SM SCT100
     FM220600 27010KT P6SM FEW100
     FM221800 30010KT P6SM SKC=

USA.gov is the U.S. government's official web portal to all federal, state and local government web resources and services.